00:52
Airports
History
Links
Donate
Help keep this website running!
PayPal
Bitcoin
This page is community maintained. The information is intended for PC simulator navigation or reference.
Always use approved charts for navigation.
SIXW
Cimento Poty
Cimento Poty (SIXW)
Pitimbu, Paraiba, Brazil (58324)
(U)
Lat/Lng:7° 31' 54" S / 34° 51' 42" W
-7.531667 / -34.861667
Elevation:1'ft / 0mMSL
ID / ICAO:SIXW
Runways:1
Longest:12-30
Asphalt 901m / 2,957ft
Nearby Weather00:00 GMT 2017-09-22
Nearby weather at SBJP, Presidente Castro Pinto located 27.2 nautical miles from SIXW
Altimeter: 30.06
Visibility: 6.2 statute miles
Wind: 5 knots (from 160°)
Temp: 23°c / 73°f
Humidity: 88.5%

METAR: SBJP 220000Z 16005KT 9999 SCT015 SCT070 23/21 Q1018

(Powered by phpweather)
Runway 12 / 30
Dimensions:901.2 x 20.1m 2957' x 66'ft
Surface:Asphalt
Runway 12 [A]Runway 30 [B]
Heading:097°TH 277°TH
Lat:
Lng:
7° 31' 52"S
34° 51' 56.57"W
7° 31' 56"S
34° 51' 27.43"W
User Notes and Comments
7° 31' 54" S / 34° 51' 42" W
Distance To
Airport ID:
Nearby Airports
(U) ITAPESSOCA 8.6 NM
SIPE S 177°
(C) Presidente Castro Pinto 27.2 NM
SBJP ( WX ) NNW 347°
(U) JOAO PESSOA AEROCLUBE 30.4 NM
SNJO N
(U) Encanta Moca 39.0 NM
SNEM S 183°
(C) Recife Intl 41.3 NM
SBRF ( WX ) S 185°
(C) Rio Tinto 53.7 NM
SNRN NNW 342°
(U) Fazenda Lagoa do Cavalo 68.9 NM
SDWI SW 230°
VFR Chart
Flight Planning at SkyVector.com